createdAt,value
2022-12-29T00:02:20.266Z,1.07
2022-12-29T00:04:48.291Z,1.28
2022-12-29T00:07:16.252Z,1.41
2022-12-29T00:09:46.000Z,1.43
2022-12-29T00:12:13.915Z,1.39
2022-12-29T00:15:00.690Z,1.19
2022-12-29T00:17:28.644Z,1.05
2022-12-29T00:20:13.955Z,0.60
2022-12-29T00:22:59.312Z,0.38
2022-12-29T00:25:44.751Z,0.51
2022-12-29T00:28:30.134Z,0.76
2022-12-29T00:31:20.186Z,0.71
2022-12-29T00:34:05.892Z,0.68
2022-12-29T00:36:36.824Z,0.69
2022-12-29T00:39:26.484Z,0.43
2022-12-29T00:42:11.911Z,0.30
2022-12-29T00:44:39.874Z,0.10
2022-12-29T00:47:09.224Z,0.01
2022-12-29T00:49:36.183Z,0.48
2022-12-29T00:52:05.928Z,0.53
2022-12-29T00:54:35.293Z,0.70
2022-12-29T00:57:04.443Z,0.84
2022-12-29T00:59:32.354Z,0.88
2022-12-29T01:02:00.572Z,0.73
2022-12-29T01:04:30.145Z,0.38
2022-12-29T01:06:58.079Z,0.70
2022-12-29T01:09:43.526Z,0.83
2022-12-29T01:12:14.390Z,0.99
2022-12-29T01:14:42.348Z,1.14
2022-12-29T01:17:10.297Z,1.09
2022-12-29T01:19:39.722Z,1.13
2022-12-29T01:22:07.728Z,1.10
2022-12-29T01:24:35.645Z,1.02
2022-12-29T01:27:03.597Z,1.01
2022-12-29T01:29:31.557Z,1.08
2022-12-29T01:31:59.551Z,1.23
2022-12-29T01:34:27.575Z,1.33
2022-12-29T01:36:56.890Z,1.35
2022-12-29T01:39:24.821Z,1.27
2022-12-29T01:41:52.816Z,1.36
2022-12-29T01:44:50.785Z,1.32
2022-12-29T01:47:25.539Z,1.39
2022-12-29T01:49:56.898Z,1.03
2022-12-29T01:52:28.910Z,1.16
2022-12-29T01:54:58.209Z,1.18
2022-12-29T01:57:30.057Z,1.43
2022-12-29T02:00:04.353Z,1.43
2022-12-29T02:02:33.766Z,1.53
2022-12-29T02:05:09.376Z,1.50
2022-12-29T02:07:40.148Z,1.48
2022-12-29T02:10:08.996Z,1.45
2022-12-29T02:12:37.028Z,1.44
2022-12-29T02:15:06.515Z,1.45
2022-12-29T02:17:53.518Z,1.47
2022-12-29T02:21:02.116Z,1.39
2022-12-29T02:24:00.141Z,1.23
2022-12-29T02:26:50.968Z,1.23
2022-12-29T02:30:01.608Z,1.09
2022-12-29T02:32:38.269Z,0.98
2022-12-29T02:35:14.267Z,0.94
2022-12-29T02:37:48.621Z,0.81
2022-12-29T02:40:25.763Z,0.83
2022-12-29T02:43:00.828Z,0.81
2022-12-29T02:45:34.019Z,0.68
2022-12-29T02:48:11.826Z,0.50
2022-12-29T02:50:42.003Z,0.62
2022-12-29T02:53:13.181Z,0.79
2022-12-29T02:55:49.515Z,0.59
2022-12-29T02:58:20.188Z,0.63
2022-12-29T03:01:03.845Z,0.80
2022-12-29T03:03:46.422Z,0.69
2022-12-29T03:06:29.407Z,0.80
2022-12-29T03:09:03.260Z,0.89
2022-12-29T03:11:57.346Z,0.83
2022-12-29T03:14:50.773Z,0.87
2022-12-29T03:17:30.207Z,0.84
2022-12-29T03:20:03.773Z,0.60
2022-12-29T03:22:37.029Z,0.71
2022-12-29T03:25:11.347Z,0.78
2022-12-29T03:27:40.084Z,0.75
2022-12-29T03:30:10.118Z,0.63
2022-12-29T03:32:44.146Z,0.63
2022-12-29T03:35:17.130Z,0.56
2022-12-29T03:37:52.923Z,0.53
2022-12-29T03:40:23.586Z,0.52
2022-12-29T03:42:52.343Z,0.56
2022-12-29T03:45:21.606Z,0.57
2022-12-29T03:47:49.876Z,0.55
2022-12-29T03:50:19.318Z,0.58
2022-12-29T03:52:47.351Z,0.56
2022-12-29T03:55:15.380Z,0.56
2022-12-29T03:57:43.312Z,0.58
2022-12-29T04:00:12.783Z,0.56
2022-12-29T04:02:40.919Z,0.51
2022-12-29T04:05:09.374Z,0.46
2022-12-29T04:07:38.706Z,0.25
2022-12-29T04:10:07.350Z,0.26
2022-12-29T04:12:35.739Z,0.31
2022-12-29T04:15:03.663Z,0.39
2022-12-29T04:17:31.655Z,0.61
2022-12-29T04:20:19.582Z,0.73
2022-12-29T04:22:48.887Z,0.70
2022-12-29T04:25:17.153Z,0.70
2022-12-29T04:27:46.504Z,0.55
2022-12-29T04:30:14.703Z,0.42
2022-12-29T04:32:42.807Z,0.47
2022-12-29T04:35:10.839Z,0.64
2022-12-29T04:37:38.770Z,0.47
2022-12-29T04:40:09.808Z,0.56
2022-12-29T04:42:37.792Z,0.66
2022-12-29T04:45:06.342Z,0.75
2022-12-29T04:47:34.305Z,0.75
2022-12-29T04:50:02.601Z,0.66
2022-12-29T04:52:30.537Z,0.64
2022-12-29T04:54:58.548Z,0.51
2022-12-29T04:57:28.090Z,0.61
2022-12-29T04:59:55.998Z,0.22
2022-12-29T05:02:24.117Z,0.19
2022-12-29T05:04:52.265Z,0.23
2022-12-29T05:07:21.031Z,0.33
2022-12-29T05:09:49.010Z,0.31
2022-12-29T05:12:16.927Z,0.34
2022-12-29T05:14:47.317Z,0.21
2022-12-29T05:17:15.322Z,0.12
2022-12-29T05:19:43.303Z,-0.12
2022-12-29T05:22:11.234Z,0.08
2022-12-29T05:24:39.150Z,0.20
2022-12-29T05:27:07.067Z,0.16
2022-12-29T05:29:35.621Z,0.19
2022-12-29T05:32:05.263Z,0.09
2022-12-29T05:34:33.273Z,0.07
2022-12-29T05:37:02.082Z,0.09
2022-12-29T05:39:30.013Z,0.00
2022-12-29T05:41:57.939Z,-0.09
2022-12-29T05:44:25.999Z,0.04
2022-12-29T05:46:53.930Z,0.10
2022-12-29T05:49:23.278Z,0.02
2022-12-29T05:51:51.214Z,0.03
2022-12-29T05:54:19.155Z,0.05
2022-12-29T05:56:47.070Z,0.05
2022-12-29T05:59:15.045Z,0.04
2022-12-29T06:01:43.211Z,-0.01
2022-12-29T06:04:11.222Z,-0.06
2022-12-29T06:06:41.594Z,-0.10
2022-12-29T06:09:12.362Z,-0.04
2022-12-29T06:11:40.258Z,0.01
2022-12-29T06:14:08.195Z,0.04
2022-12-29T06:16:36.257Z,0.03
2022-12-29T06:19:04.278Z,0.07
2022-12-29T06:21:32.195Z,0.08
2022-12-29T06:24:01.519Z,0.11
2022-12-29T06:26:29.479Z,0.13
2022-12-29T06:28:57.419Z,0.14
2022-12-29T06:31:25.393Z,0.13
2022-12-29T06:33:53.378Z,0.19
2022-12-29T06:36:21.366Z,0.20
2022-12-29T06:38:49.302Z,0.29
2022-12-29T06:41:18.628Z,0.35
2022-12-29T06:43:46.538Z,0.41
2022-12-29T06:46:14.547Z,0.51
2022-12-29T06:48:43.316Z,0.55
2022-12-29T06:51:11.323Z,0.64
2022-12-29T06:53:39.268Z,0.79
2022-12-29T06:56:07.696Z,0.95
2022-12-29T06:58:36.988Z,0.90
2022-12-29T07:01:05.199Z,1.10
2022-12-29T07:03:33.152Z,1.28
2022-12-29T07:06:01.103Z,1.46
2022-12-29T07:08:29.050Z,1.50
2022-12-29T07:10:56.981Z,1.54
2022-12-29T07:13:25.001Z,1.58
2022-12-29T07:15:54.301Z,1.72
2022-12-29T07:18:22.231Z,1.86
2022-12-29T07:20:50.174Z,2.01
2022-12-29T07:23:18.127Z,2.16
2022-12-29T07:25:46.047Z,2.30
2022-12-29T07:28:14.081Z,2.42
2022-12-29T07:30:42.071Z,2.48
2022-12-29T07:33:11.373Z,2.56
2022-12-29T07:35:39.317Z,2.73
2022-12-29T07:38:07.243Z,2.71
2022-12-29T07:40:35.153Z,2.77
2022-12-29T07:43:03.143Z,2.96
2022-12-29T07:45:31.043Z,3.17
2022-12-29T07:47:59.020Z,3.31
2022-12-29T07:50:28.309Z,3.41
2022-12-29T07:52:56.411Z,3.44
2022-12-29T07:55:24.364Z,3.47
2022-12-29T07:57:54.847Z,3.71
2022-12-29T08:00:23.060Z,3.83
2022-12-29T08:02:51.934Z,4.00
2022-12-29T08:05:19.846Z,4.15
2022-12-29T08:07:49.290Z,4.24
2022-12-29T08:10:18.083Z,4.23
2022-12-29T08:12:46.213Z,4.44
2022-12-29T08:15:14.237Z,4.59
2022-12-29T08:17:42.430Z,4.69
2022-12-29T08:20:11.415Z,4.82
2022-12-29T08:22:39.379Z,4.92
2022-12-29T08:25:09.560Z,4.98
2022-12-29T08:27:37.799Z,5.06
2022-12-29T08:30:06.612Z,4.93
2022-12-29T08:32:34.751Z,4.99
2022-12-29T08:35:02.734Z,5.08
2022-12-29T08:37:31.436Z,5.15
2022-12-29T08:40:01.165Z,5.29
2022-12-29T08:42:32.175Z,5.37
2022-12-29T08:45:00.530Z,5.49
2022-12-29T08:47:29.052Z,5.59
2022-12-29T08:49:57.004Z,5.64
2022-12-29T08:52:25.092Z,5.73
2022-12-29T08:54:53.069Z,5.78
2022-12-29T08:57:21.002Z,5.82
2022-12-29T08:59:50.318Z,5.82
2022-12-29T09:02:24.154Z,5.86
2022-12-29T09:04:53.426Z,6.01
2022-12-29T09:07:21.503Z,6.02
2022-12-29T09:09:49.461Z,6.14
2022-12-29T09:12:17.906Z,6.11
2022-12-29T09:14:45.864Z,6.35
2022-12-29T09:17:32.753Z,6.36
2022-12-29T09:20:00.810Z,6.45
2022-12-29T09:22:28.799Z,6.42
2022-12-29T09:24:56.734Z,6.53
2022-12-29T09:27:24.648Z,6.68
2022-12-29T09:29:52.581Z,6.68
2022-12-29T09:32:23.566Z,6.69
2022-12-29T09:34:52.323Z,6.75
2022-12-29T09:37:20.306Z,6.87
2022-12-29T09:39:54.026Z,6.94
2022-12-29T09:42:25.891Z,6.93
2022-12-29T09:45:13.356Z,7.02
2022-12-29T09:47:44.237Z,7.08
2022-12-29T09:50:21.421Z,7.24
2022-12-29T09:52:53.322Z,7.33
2022-12-29T09:55:25.545Z,7.34
2022-12-29T09:57:58.805Z,7.40
2022-12-29T10:00:38.299Z,7.52
2022-12-29T10:03:16.381Z,7.48
2022-12-29T10:05:50.429Z,7.24
2022-12-29T10:08:34.632Z,7.41
2022-12-29T10:11:15.664Z,7.51
2022-12-29T10:14:01.951Z,7.57
2022-12-29T10:16:41.193Z,7.58
2022-12-29T10:19:33.522Z,7.85
2022-12-29T10:22:11.707Z,7.95
2022-12-29T10:24:41.172Z,7.94
2022-12-29T10:27:13.610Z,7.97
2022-12-29T10:29:47.551Z,8.00
2022-12-29T10:32:25.303Z,8.02
2022-12-29T10:34:59.382Z,7.68
2022-12-29T10:37:37.049Z,7.72
2022-12-29T10:40:16.821Z,7.72
2022-12-29T10:42:50.711Z,7.81
2022-12-29T10:45:20.751Z,7.62
2022-12-29T10:47:56.326Z,7.85
2022-12-29T10:50:26.805Z,7.77
2022-12-29T10:52:56.716Z,7.54
2022-12-29T10:55:29.468Z,7.71
2022-12-29T10:58:00.933Z,7.87
2022-12-29T11:00:28.857Z,8.01
2022-12-29T11:03:31.557Z,8.09
2022-12-29T11:06:09.348Z,8.16
2022-12-29T11:08:42.044Z,8.04
2022-12-29T11:11:11.536Z,8.12
2022-12-29T11:13:50.213Z,8.03
2022-12-29T11:16:31.706Z,8.25
2022-12-29T11:19:00.270Z,8.18
2022-12-29T11:21:35.012Z,8.03
2022-12-29T11:24:04.042Z,7.93
2022-12-29T11:26:34.755Z,8.07
2022-12-29T11:29:29.397Z,8.04
2022-12-29T11:32:00.107Z,7.94
2022-12-29T11:34:33.813Z,7.92
2022-12-29T11:37:07.358Z,8.03
2022-12-29T11:39:41.504Z,7.95
2022-12-29T11:42:17.131Z,8.03
2022-12-29T11:44:48.740Z,8.12
2022-12-29T11:47:28.722Z,8.01
2022-12-29T11:50:00.202Z,7.87
2022-12-29T11:52:34.259Z,7.94
2022-12-29T11:55:03.681Z,8.09
2022-12-29T11:57:35.713Z,8.15
2022-12-29T12:00:05.912Z,7.92
2022-12-29T12:02:44.723Z,7.99
2022-12-29T12:05:20.472Z,8.11
2022-12-29T12:07:54.473Z,8.10
2022-12-29T12:10:26.936Z,7.92
2022-12-29T12:13:05.478Z,7.99
2022-12-29T12:15:45.866Z,7.87
2022-12-29T12:18:20.915Z,7.94
2022-12-29T12:20:54.038Z,8.03
2022-12-29T12:23:38.703Z,7.86
2022-12-29T12:26:13.796Z,7.91
2022-12-29T12:28:50.803Z,8.03
2022-12-29T12:31:26.767Z,7.90
2022-12-29T12:34:00.721Z,7.92
2022-12-29T12:36:46.404Z,7.72
2022-12-29T12:39:25.728Z,7.94
2022-12-29T12:42:07.195Z,7.91
2022-12-29T12:44:44.168Z,7.87
2022-12-29T12:47:38.970Z,7.91
2022-12-29T12:50:29.564Z,7.92
2022-12-29T12:53:13.145Z,7.93
2022-12-29T12:56:03.751Z,7.87
2022-12-29T12:58:42.922Z,7.76
2022-12-29T13:01:23.090Z,7.89
2022-12-29T13:04:16.337Z,7.81
2022-12-29T13:06:54.643Z,7.84
2022-12-29T13:09:46.686Z,7.90
2022-12-29T13:12:29.167Z,7.91
2022-12-29T13:15:09.919Z,7.75
2022-12-29T13:17:46.329Z,7.71
2022-12-29T13:20:29.852Z,7.54
2022-12-29T13:23:03.819Z,7.61
2022-12-29T13:25:39.820Z,7.67
2022-12-29T13:28:19.131Z,7.70
2022-12-29T13:30:55.839Z,7.68
2022-12-29T13:33:31.273Z,7.70
2022-12-29T13:36:04.537Z,7.38
2022-12-29T13:38:37.622Z,7.54
2022-12-29T13:41:10.722Z,7.52
2022-12-29T13:43:42.913Z,7.45
2022-12-29T13:46:17.844Z,7.44
2022-12-29T13:48:50.320Z,7.38
2022-12-29T13:51:25.652Z,7.22
2022-12-29T13:54:05.051Z,7.24
2022-12-29T13:56:40.180Z,6.99
2022-12-29T13:59:20.232Z,6.85
2022-12-29T14:01:56.176Z,6.96
2022-12-29T14:04:26.683Z,7.07
2022-12-29T14:07:03.930Z,7.09
2022-12-29T14:09:47.409Z,7.04
2022-12-29T14:12:24.338Z,7.03
2022-12-29T14:14:54.169Z,6.99
2022-12-29T14:17:23.266Z,6.93
2022-12-29T14:19:56.129Z,6.71
2022-12-29T14:22:32.993Z,6.61
2022-12-29T14:25:01.729Z,6.66
2022-12-29T14:27:55.686Z,6.65
2022-12-29T14:30:51.226Z,6.58
2022-12-29T14:33:19.507Z,6.50
2022-12-29T14:35:50.834Z,6.46
2022-12-29T14:38:21.760Z,6.41
2022-12-29T14:40:51.087Z,6.34
2022-12-29T14:43:29.301Z,6.29
2022-12-29T14:46:02.983Z,6.21
2022-12-29T14:48:48.673Z,6.12
2022-12-29T14:51:32.818Z,6.07
2022-12-29T14:54:00.837Z,6.01
2022-12-29T14:56:32.305Z,5.87
2022-12-29T14:59:04.005Z,5.84
2022-12-29T15:01:42.747Z,5.78
2022-12-29T15:04:20.382Z,5.67
2022-12-29T15:06:50.622Z,5.54
2022-12-29T15:09:30.730Z,5.38
2022-12-29T15:12:03.783Z,5.30
2022-12-29T15:14:38.469Z,5.26
2022-12-29T15:17:25.634Z,5.20
2022-12-29T15:19:53.707Z,5.14
2022-12-29T15:22:21.890Z,5.11
2022-12-29T15:24:53.003Z,5.00
2022-12-29T15:27:23.711Z,5.01
2022-12-29T15:29:59.048Z,4.91
2022-12-29T15:32:31.208Z,4.86
2022-12-29T15:35:02.385Z,4.70
2022-12-29T15:37:36.426Z,4.58
2022-12-29T15:40:05.387Z,4.57
2022-12-29T15:42:59.006Z,4.52
2022-12-29T15:45:36.579Z,4.38
2022-12-29T15:48:09.472Z,4.47
2022-12-29T15:50:39.894Z,4.43
2022-12-29T15:53:13.251Z,4.37
2022-12-29T15:55:43.630Z,4.31
2022-12-29T15:58:22.199Z,4.19
2022-12-29T16:00:54.058Z,4.15
2022-12-29T16:03:26.559Z,4.22
2022-12-29T16:05:56.888Z,4.25
2022-12-29T16:08:38.103Z,4.24
2022-12-29T16:11:20.445Z,4.20
2022-12-29T16:13:50.799Z,4.27
2022-12-29T16:16:21.652Z,4.24
2022-12-29T16:18:57.209Z,4.19
2022-12-29T16:21:28.602Z,3.50
2022-12-29T16:24:01.908Z,3.22
2022-12-29T16:26:30.027Z,3.69
2022-12-29T16:29:00.572Z,3.83
2022-12-29T16:31:36.273Z,3.91
2022-12-29T16:34:22.222Z,3.94
2022-12-29T16:36:56.797Z,3.96
2022-12-29T16:39:37.011Z,3.98
2022-12-29T16:42:38.328Z,3.36
2022-12-29T16:45:46.657Z,2.88
2022-12-29T16:48:22.068Z,3.24
2022-12-29T16:50:51.966Z,3.50
2022-12-29T16:53:24.181Z,3.61
2022-12-29T16:55:53.986Z,3.70
2022-12-29T16:58:24.951Z,3.69
2022-12-29T17:00:56.868Z,3.68
2022-12-29T17:03:30.017Z,3.55
2022-12-29T17:05:59.343Z,3.59
2022-12-29T17:08:27.816Z,3.51
2022-12-29T17:11:15.440Z,3.49
2022-12-29T17:13:43.607Z,3.48
2022-12-29T17:16:12.936Z,3.44
2022-12-29T17:18:41.170Z,3.43
2022-12-29T17:21:10.509Z,3.41
2022-12-29T17:23:38.470Z,3.34
2022-12-29T17:26:09.432Z,3.26
2022-12-29T17:28:37.343Z,3.30
2022-12-29T17:31:08.092Z,3.14
2022-12-29T17:33:38.566Z,3.16
2022-12-29T17:36:06.843Z,3.09
2022-12-29T17:38:37.726Z,3.26
2022-12-29T17:41:06.343Z,3.08
2022-12-29T17:43:36.967Z,3.13
2022-12-29T17:46:08.361Z,3.44
2022-12-29T17:48:36.672Z,3.49
2022-12-29T17:51:04.928Z,3.47
2022-12-29T17:53:32.944Z,3.49
2022-12-29T17:56:02.248Z,3.54
2022-12-29T17:58:32.563Z,3.58
2022-12-29T18:01:02.182Z,3.63
2022-12-29T18:03:33.188Z,3.63
2022-12-29T18:06:01.638Z,3.60
2022-12-29T18:08:30.490Z,3.51
2022-12-29T18:10:59.001Z,3.43
2022-12-29T18:13:43.664Z,3.42
2022-12-29T18:16:14.439Z,3.21
2022-12-29T18:18:42.509Z,3.09
2022-12-29T18:21:16.595Z,3.17
2022-12-29T18:23:44.842Z,3.27
2022-12-29T18:26:23.900Z,3.22
2022-12-29T18:28:56.808Z,3.18
2022-12-29T18:31:27.075Z,3.08
2022-12-29T18:33:56.019Z,2.98
2022-12-29T18:36:24.230Z,3.08
2022-12-29T18:38:54.060Z,3.07
2022-12-29T18:41:24.025Z,3.05
2022-12-29T18:43:52.061Z,3.06
2022-12-29T18:46:23.519Z,3.05
2022-12-29T18:48:52.147Z,2.96
2022-12-29T18:51:21.855Z,2.93
2022-12-29T18:53:50.130Z,2.90
2022-12-29T18:56:18.056Z,2.90
2022-12-29T18:58:45.991Z,2.71
2022-12-29T19:01:22.174Z,2.70
2022-12-29T19:03:50.303Z,2.83
2022-12-29T19:06:18.442Z,2.83
2022-12-29T19:08:46.387Z,2.85
2022-12-29T19:11:14.287Z,2.88
2022-12-29T19:13:42.275Z,2.91
2022-12-29T19:16:18.400Z,2.89
2022-12-29T19:19:03.789Z,2.87
2022-12-29T19:21:36.586Z,2.78
2022-12-29T19:24:04.866Z,2.66
2022-12-29T19:26:36.759Z,2.69
2022-12-29T19:29:06.555Z,2.74
2022-12-29T19:31:35.033Z,2.75
2022-12-29T19:34:04.474Z,2.69
2022-12-29T19:36:32.761Z,2.58
2022-12-29T19:39:00.955Z,2.57
2022-12-29T19:41:29.068Z,2.69
2022-12-29T19:43:57.381Z,2.74
2022-12-29T19:46:25.836Z,2.72
2022-12-29T19:48:54.977Z,2.59
2022-12-29T19:51:24.299Z,2.54
2022-12-29T19:53:52.801Z,2.53
2022-12-29T19:56:20.759Z,2.53
2022-12-29T19:58:48.692Z,2.58
2022-12-29T20:01:18.572Z,2.64
2022-12-29T20:03:47.018Z,2.64
2022-12-29T20:06:15.424Z,2.68
2022-12-29T20:08:45.066Z,2.71
2022-12-29T20:11:15.365Z,2.62
2022-12-29T20:13:43.842Z,2.66
2022-12-29T20:16:15.196Z,2.65
2022-12-29T20:18:43.859Z,2.54
2022-12-29T20:21:14.932Z,2.52
2022-12-29T20:23:45.248Z,2.42
2022-12-29T20:26:16.097Z,2.51
2022-12-29T20:28:44.078Z,2.58
2022-12-29T20:31:18.458Z,2.59
2022-12-29T20:33:46.803Z,2.49
2022-12-29T20:36:17.789Z,2.44
2022-12-29T20:38:48.080Z,2.51
2022-12-29T20:41:16.555Z,2.61
2022-12-29T20:43:44.544Z,2.66
2022-12-29T20:46:18.050Z,2.73
2022-12-29T20:48:48.966Z,2.71
2022-12-29T20:51:16.997Z,2.66
2022-12-29T20:53:46.512Z,2.63
2022-12-29T20:56:16.629Z,2.44
2022-12-29T20:59:17.196Z,2.40
2022-12-29T21:01:33.096Z,2.41
2022-12-29T21:04:01.100Z,2.46
2022-12-29T21:06:29.055Z,2.45
2022-12-29T21:09:00.073Z,2.47
2022-12-29T21:11:28.881Z,2.48
2022-12-29T21:14:00.902Z,2.47
2022-12-29T21:16:29.698Z,2.38
2022-12-29T21:18:57.907Z,2.45
2022-12-29T21:21:26.991Z,2.51
2022-12-29T21:23:55.086Z,2.48
2022-12-29T21:26:25.600Z,2.32
2022-12-29T21:28:53.673Z,2.26
2022-12-29T21:31:29.966Z,2.23
2022-12-29T21:33:58.532Z,2.25
2022-12-29T21:36:26.544Z,2.26
2022-12-29T21:38:54.982Z,2.24
2022-12-29T21:41:24.350Z,2.30
2022-12-29T21:44:06.729Z,2.24
2022-12-29T21:46:36.209Z,2.26
2022-12-29T21:49:04.572Z,2.30
2022-12-29T21:51:49.834Z,2.27
2022-12-29T21:54:32.225Z,2.17
2022-12-29T21:57:01.593Z,2.14
2022-12-29T21:59:47.025Z,2.15
2022-12-29T22:02:37.213Z,2.21
2022-12-29T22:05:24.094Z,2.19
2022-12-29T22:08:09.485Z,2.10
2022-12-29T22:10:58.809Z,1.96
2022-12-29T22:13:28.615Z,1.82
2022-12-29T22:15:56.629Z,1.91
2022-12-29T22:18:24.572Z,1.94
2022-12-29T22:20:52.532Z,1.84
2022-12-29T22:23:20.547Z,1.92
2022-12-29T22:25:49.975Z,2.00
2022-12-29T22:28:18.262Z,1.96
2022-12-29T22:30:47.630Z,1.87
2022-12-29T22:33:15.608Z,1.67
2022-12-29T22:35:43.701Z,1.84
2022-12-29T22:38:11.668Z,1.93
2022-12-29T22:40:39.684Z,1.77
2022-12-29T22:43:12.949Z,1.81
2022-12-29T22:45:41.447Z,1.89
2022-12-29T22:48:11.664Z,1.98
2022-12-29T22:50:40.474Z,2.11
2022-12-29T22:53:08.405Z,2.22
2022-12-29T22:55:36.346Z,2.16
2022-12-29T22:58:04.442Z,2.12
2022-12-29T23:00:32.552Z,1.99
2022-12-29T23:03:00.657Z,1.76
2022-12-29T23:05:30.129Z,0.54
2022-12-29T23:07:58.081Z,0.61
2022-12-29T23:10:26.016Z,1.15
2022-12-29T23:12:53.925Z,1.23
2022-12-29T23:15:21.873Z,0.62
2022-12-29T23:17:49.843Z,0.98
2022-12-29T23:20:17.849Z,0.98
2022-12-29T23:22:47.180Z,0.86
2022-12-29T23:25:15.242Z,0.95
2022-12-29T23:27:43.159Z,0.90
2022-12-29T23:30:11.666Z,0.97
2022-12-29T23:32:39.601Z,0.91
2022-12-29T23:35:08.014Z,0.82
2022-12-29T23:37:35.945Z,0.78
2022-12-29T23:40:07.161Z,0.81
2022-12-29T23:42:35.089Z,0.84
2022-12-29T23:45:03.020Z,1.06
2022-12-29T23:47:30.955Z,1.21
2022-12-29T23:49:58.901Z,1.31
2022-12-29T23:52:26.949Z,1.38
2022-12-29T23:54:54.854Z,1.59
2022-12-29T23:57:24.154Z,1.75
2022-12-29T23:59:52.086Z,1.74
